sensor_id;sensor_type;location;lat;lon;timestamp;temperature;humidity
76577;DHT22;65441;44.748;37.600;2024-01-16T00:01:44;9.40;81.01
76577;DHT22;65441;44.748;37.600;2024-01-16T00:04:12;9.40;81.05
76577;DHT22;65441;44.748;37.600;2024-01-16T00:06:40;9.46;80.91
76577;DHT22;65441;44.748;37.600;2024-01-16T00:09:10;9.49;81.07
76577;DHT22;65441;44.748;37.600;2024-01-16T00:11:40;9.50;80.61
76577;DHT22;65441;44.748;37.600;2024-01-16T00:14:09;9.47;81.41
76577;DHT22;65441;44.748;37.600;2024-01-16T00:16:42;9.47;81.90
76577;DHT22;65441;44.748;37.600;2024-01-16T00:19:27;9.42;82.21
76577;DHT22;65441;44.748;37.600;2024-01-16T00:21:55;9.40;82.34
76577;DHT22;65441;44.748;37.600;2024-01-16T00:24:25;9.38;82.42
76577;DHT22;65441;44.748;37.600;2024-01-16T00:26:54;9.34;83.13
76577;DHT22;65441;44.748;37.600;2024-01-16T00:29:22;9.31;83.68
76577;DHT22;65441;44.748;37.600;2024-01-16T00:32:09;9.27;84.19
76577;DHT22;65441;44.748;37.600;2024-01-16T00:34:37;9.27;84.68
76577;DHT22;65441;44.748;37.600;2024-01-16T00:37:05;9.25;85.03
76577;DHT22;65441;44.748;37.600;2024-01-16T00:39:35;9.21;85.05
76577;DHT22;65441;44.748;37.600;2024-01-16T00:42:03;9.21;85.71
76577;DHT22;65441;44.748;37.600;2024-01-16T00:44:32;9.20;85.78
76577;DHT22;65441;44.748;37.600;2024-01-16T00:47:18;9.17;86.00
76577;DHT22;65441;44.748;37.600;2024-01-16T00:49:46;9.16;85.99
76577;DHT22;65441;44.748;37.600;2024-01-16T00:52:14;9.16;86.13
76577;DHT22;65441;44.748;37.600;2024-01-16T00:54:44;9.21;86.32
76577;DHT22;65441;44.748;37.600;2024-01-16T00:57:13;9.25;86.35
76577;DHT22;65441;44.748;37.600;2024-01-16T00:59:42;9.24;86.41
76577;DHT22;65441;44.748;37.600;2024-01-16T01:02:10;9.27;86.74
76577;DHT22;65441;44.748;37.600;2024-01-16T01:04:39;9.32;86.97
76577;DHT22;65441;44.748;37.600;2024-01-16T01:07:08;9.31;86.90
76577;DHT22;65441;44.748;37.600;2024-01-16T01:09:36;9.32;86.97
76577;DHT22;65441;44.748;37.600;2024-01-16T01:12:10;9.31;87.10
76577;DHT22;65441;44.748;37.600;2024-01-16T01:14:38;9.32;87.80
76577;DHT22;65441;44.748;37.600;2024-01-16T01:17:25;9.31;87.99
76577;DHT22;65441;44.748;37.600;2024-01-16T01:19:53;9.29;88.14
76577;DHT22;65441;44.748;37.600;2024-01-16T01:22:21;9.27;88.21
76577;DHT22;65441;44.748;37.600;2024-01-16T01:24:50;9.27;88.02
76577;DHT22;65441;44.748;37.600;2024-01-16T01:27:19;9.25;87.77
76577;DHT22;65441;44.748;37.600;2024-01-16T01:30:07;9.26;87.62
76577;DHT22;65441;44.748;37.600;2024-01-16T01:32:36;9.29;87.34
76577;DHT22;65441;44.748;37.600;2024-01-16T01:35:05;9.27;87.43
76577;DHT22;65441;44.748;37.600;2024-01-16T01:37:34;9.27;87.43
76577;DHT22;65441;44.748;37.600;2024-01-16T01:40:02;9.30;87.29
76577;DHT22;65441;44.748;37.600;2024-01-16T01:42:32;9.31;87.10
76577;DHT22;65441;44.748;37.600;2024-01-16T01:45:00;9.34;86.90
76577;DHT22;65441;44.748;37.600;2024-01-16T01:47:46;9.36;86.73
76577;DHT22;65441;44.748;37.600;2024-01-16T01:50:14;9.41;86.63
76577;DHT22;65441;44.748;37.600;2024-01-16T01:52:43;9.38;86.27
76577;DHT22;65441;44.748;37.600;2024-01-16T01:55:13;9.39;86.03
76577;DHT22;65441;44.748;37.600;2024-01-16T01:57:44;9.39;86.23
76577;DHT22;65441;44.748;37.600;2024-01-16T02:00:13;9.38;86.37
76577;DHT22;65441;44.748;37.600;2024-01-16T02:02:44;9.35;86.93
76577;DHT22;65441;44.748;37.600;2024-01-16T02:05:13;9.38;86.86
76577;DHT22;65441;44.748;37.600;2024-01-16T02:07:42;9.36;86.77
76577;DHT22;65441;44.748;37.600;2024-01-16T02:10:10;9.39;86.41
76577;DHT22;65441;44.748;37.600;2024-01-16T02:12:38;9.42;86.44
76577;DHT22;65441;44.748;37.600;2024-01-16T02:15:08;9.46;86.64
76577;DHT22;65441;44.748;37.600;2024-01-16T02:17:36;9.48;86.41
76577;DHT22;65441;44.748;37.600;2024-01-16T02:20:06;9.50;86.70
76577;DHT22;65441;44.748;37.600;2024-01-16T02:22:36;9.54;86.86
76577;DHT22;65441;44.748;37.600;2024-01-16T02:25:07;9.55;87.22
76577;DHT22;65441;44.748;37.600;2024-01-16T02:27:35;9.53;86.88
76577;DHT22;65441;44.748;37.600;2024-01-16T02:30:04;9.56;87.25
76577;DHT22;65441;44.748;37.600;2024-01-16T02:32:33;9.55;87.09
76577;DHT22;65441;44.748;37.600;2024-01-16T02:35:02;9.55;87.44
76577;DHT22;65441;44.748;37.600;2024-01-16T02:37:30;9.53;87.85
76577;DHT22;65441;44.748;37.600;2024-01-16T02:39:57;9.53;88.07
76577;DHT22;65441;44.748;37.600;2024-01-16T02:42:30;9.53;88.02
76577;DHT22;65441;44.748;37.600;2024-01-16T02:44:58;9.54;88.41
76577;DHT22;65441;44.748;37.600;2024-01-16T02:47:26;9.53;88.43
76577;DHT22;65441;44.748;37.600;2024-01-16T02:49:55;9.55;87.71
76577;DHT22;65441;44.748;37.600;2024-01-16T02:52:24;9.57;88.66
76577;DHT22;65441;44.748;37.600;2024-01-16T02:54:52;9.57;88.93
76577;DHT22;65441;44.748;37.600;2024-01-16T02:57:21;9.57;88.96
76577;DHT22;65441;44.748;37.600;2024-01-16T02:59:51;9.57;88.95
76577;DHT22;65441;44.748;37.600;2024-01-16T03:02:19;9.56;88.62
76577;DHT22;65441;44.748;37.600;2024-01-16T03:04:47;9.56;88.41
76577;DHT22;65441;44.748;37.600;2024-01-16T03:07:20;9.59;87.83
76577;DHT22;65441;44.748;37.600;2024-01-16T03:09:55;9.62;88.21
76577;DHT22;65441;44.748;37.600;2024-01-16T03:12:24;9.60;88.80
76577;DHT22;65441;44.748;37.600;2024-01-16T03:14:53;9.61;89.05
76577;DHT22;65441;44.748;37.600;2024-01-16T03:17:22;9.59;89.30
76577;DHT22;65441;44.748;37.600;2024-01-16T03:19:51;9.56;89.12
76577;DHT22;65441;44.748;37.600;2024-01-16T03:22:19;9.52;89.21
76577;DHT22;65441;44.748;37.600;2024-01-16T03:24:49;9.52;89.34
76577;DHT22;65441;44.748;37.600;2024-01-16T03:27:18;9.53;89.46
76577;DHT22;65441;44.748;37.600;2024-01-16T03:29:46;9.54;89.46
76577;DHT22;65441;44.748;37.600;2024-01-16T03:32:16;9.56;89.79
76577;DHT22;65441;44.748;37.600;2024-01-16T03:34:45;9.57;89.60
76577;DHT22;65441;44.748;37.600;2024-01-16T03:37:13;9.60;90.02
76577;DHT22;65441;44.748;37.600;2024-01-16T03:39:41;9.68;90.84
76577;DHT22;65441;44.748;37.600;2024-01-16T03:42:11;9.76;89.54
76577;DHT22;65441;44.748;37.600;2024-01-16T03:44:39;9.71;89.46
76577;DHT22;65441;44.748;37.600;2024-01-16T03:47:08;9.74;89.39
76577;DHT22;65441;44.748;37.600;2024-01-16T03:49:38;9.69;89.39
76577;DHT22;65441;44.748;37.600;2024-01-16T03:52:06;9.69;90.02
76577;DHT22;65441;44.748;37.600;2024-01-16T03:54:34;9.66;90.50
76577;DHT22;65441;44.748;37.600;2024-01-16T03:57:21;9.64;90.71
76577;DHT22;65441;44.748;37.600;2024-01-16T03:59:50;9.62;90.76
76577;DHT22;65441;44.748;37.600;2024-01-16T04:02:19;9.66;90.53
76577;DHT22;65441;44.748;37.600;2024-01-16T04:04:48;9.68;90.27
76577;DHT22;65441;44.748;37.600;2024-01-16T04:07:17;9.70;90.15
76577;DHT22;65441;44.748;37.600;2024-01-16T04:09:45;9.67;89.73
76577;DHT22;65441;44.748;37.600;2024-01-16T04:12:13;9.69;89.18
76577;DHT22;65441;44.748;37.600;2024-01-16T04:17:28;9.67;88.80
76577;DHT22;65441;44.748;37.600;2024-01-16T04:19:58;9.64;88.67
76577;DHT22;65441;44.748;37.600;2024-01-16T04:22:26;9.65;88.54
76577;DHT22;65441;44.748;37.600;2024-01-16T04:24:55;9.66;88.59
76577;DHT22;65441;44.748;37.600;2024-01-16T04:27:23;9.70;88.31
76577;DHT22;65441;44.748;37.600;2024-01-16T04:29:51;9.65;87.99
76577;DHT22;65441;44.748;37.600;2024-01-16T04:32:20;9.66;87.55
76577;DHT22;65441;44.748;37.600;2024-01-16T04:34:48;9.69;87.44
76577;DHT22;65441;44.748;37.600;2024-01-16T04:37:18;9.69;87.64
76577;DHT22;65441;44.748;37.600;2024-01-16T04:39:46;9.68;87.13
76577;DHT22;65441;44.748;37.600;2024-01-16T04:42:15;9.71;87.19
76577;DHT22;65441;44.748;37.600;2024-01-16T04:44:44;9.74;86.90
76577;DHT22;65441;44.748;37.600;2024-01-16T04:47:12;9.74;87.03
76577;DHT22;65441;44.748;37.600;2024-01-16T04:49:42;9.76;87.10
76577;DHT22;65441;44.748;37.600;2024-01-16T04:52:10;9.75;86.96
76577;DHT22;65441;44.748;37.600;2024-01-16T04:57:26;9.76;86.99
76577;DHT22;65441;44.748;37.600;2024-01-16T04:59:54;9.76;87.19
76577;DHT22;65441;44.748;37.600;2024-01-16T05:02:22;9.77;87.10
76577;DHT22;65441;44.748;37.600;2024-01-16T05:04:51;9.76;87.31
76577;DHT22;65441;44.748;37.600;2024-01-16T05:07:19;9.76;87.46
76577;DHT22;65441;44.748;37.600;2024-01-16T05:09:49;9.75;87.61
76577;DHT22;65441;44.748;37.600;2024-01-16T05:12:17;9.75;87.62
76577;DHT22;65441;44.748;37.600;2024-01-16T05:14:45;9.76;87.44
76577;DHT22;65441;44.748;37.600;2024-01-16T05:17:13;9.78;87.57
76577;DHT22;65441;44.748;37.600;2024-01-16T05:19:42;9.81;87.39
76577;DHT22;65441;44.748;37.600;2024-01-16T05:22:10;9.82;87.42
76577;DHT22;65441;44.748;37.600;2024-01-16T05:24:38;9.82;87.52
76577;DHT22;65441;44.748;37.600;2024-01-16T05:27:08;9.85;87.54
76577;DHT22;65441;44.748;37.600;2024-01-16T05:29:36;9.89;87.49
76577;DHT22;65441;44.748;37.600;2024-01-16T05:32:05;9.88;87.56
76577;DHT22;65441;44.748;37.600;2024-01-16T05:34:34;9.89;87.73
76577;DHT22;65441;44.748;37.600;2024-01-16T05:37:02;9.94;87.69
76577;DHT22;65441;44.748;37.600;2024-01-16T05:39:30;9.97;87.51
76577;DHT22;65441;44.748;37.600;2024-01-16T05:41:59;10.00;87.61
76577;DHT22;65441;44.748;37.600;2024-01-16T05:44:29;9.98;87.80
76577;DHT22;65441;44.748;37.600;2024-01-16T05:46:57;10.00;87.94
76577;DHT22;65441;44.748;37.600;2024-01-16T05:49:25;9.99;87.83
76577;DHT22;65441;44.748;37.600;2024-01-16T05:51:53;10.05;87.73
76577;DHT22;65441;44.748;37.600;2024-01-16T05:54:22;10.03;87.67
76577;DHT22;65441;44.748;37.600;2024-01-16T05:56:50;10.06;87.54
76577;DHT22;65441;44.748;37.600;2024-01-16T05:59:18;10.06;87.62
76577;DHT22;65441;44.748;37.600;2024-01-16T06:01:48;10.08;87.58
76577;DHT22;65441;44.748;37.600;2024-01-16T06:04:17;10.09;87.64
76577;DHT22;65441;44.748;37.600;2024-01-16T06:06:45;10.12;87.57
76577;DHT22;65441;44.748;37.600;2024-01-16T06:09:14;10.12;87.54
76577;DHT22;65441;44.748;37.600;2024-01-16T06:11:43;10.14;87.61
76577;DHT22;65441;44.748;37.600;2024-01-16T06:14:11;10.15;87.77
76577;DHT22;65441;44.748;37.600;2024-01-16T06:16:56;10.19;87.79
76577;DHT22;65441;44.748;37.600;2024-01-16T06:19:25;10.18;87.91
76577;DHT22;65441;44.748;37.600;2024-01-16T06:21:53;10.20;87.82
76577;DHT22;65441;44.748;37.600;2024-01-16T06:24:21;10.25;87.79
76577;DHT22;65441;44.748;37.600;2024-01-16T06:26:49;10.27;87.89
76577;DHT22;65441;44.748;37.600;2024-01-16T06:29:18;10.34;87.81
76577;DHT22;65441;44.748;37.600;2024-01-16T06:31:46;10.35;87.89
76577;DHT22;65441;44.748;37.600;2024-01-16T06:34:16;10.39;87.90
76577;DHT22;65441;44.748;37.600;2024-01-16T06:36:44;10.41;87.95
76577;DHT22;65441;44.748;37.600;2024-01-16T06:39:13;10.44;87.99
76577;DHT22;65441;44.748;37.600;2024-01-16T06:41:41;10.49;88.05
76577;DHT22;65441;44.748;37.600;2024-01-16T06:44:10;10.58;87.75
76577;DHT22;65441;44.748;37.600;2024-01-16T06:46:38;10.64;87.78
76577;DHT22;65441;44.748;37.600;2024-01-16T06:49:06;10.64;87.55
76577;DHT22;65441;44.748;37.600;2024-01-16T06:51:36;10.64;87.76
76577;DHT22;65441;44.748;37.600;2024-01-16T06:54:05;10.68;87.98
76577;DHT22;65441;44.748;37.600;2024-01-16T06:56:33;10.71;87.94
76577;DHT22;65441;44.748;37.600;2024-01-16T06:59:02;10.65;88.23
76577;DHT22;65441;44.748;37.600;2024-01-16T07:01:48;10.64;88.58
76577;DHT22;65441;44.748;37.600;2024-01-16T07:04:16;10.64;88.55
76577;DHT22;65441;44.748;37.600;2024-01-16T07:06:46;10.65;88.64
76577;DHT22;65441;44.748;37.600;2024-01-16T07:09:15;10.68;88.58
76577;DHT22;65441;44.748;37.600;2024-01-16T07:11:45;10.75;88.73
76577;DHT22;65441;44.748;37.600;2024-01-16T07:17:00;10.75;88.54
76577;DHT22;65441;44.748;37.600;2024-01-16T07:19:28;10.77;88.39
76577;DHT22;65441;44.748;37.600;2024-01-16T07:22:15;10.77;88.53
76577;DHT22;65441;44.748;37.600;2024-01-16T07:24:43;10.81;88.41
76577;DHT22;65441;44.748;37.600;2024-01-16T07:27:12;10.80;88.31
76577;DHT22;65441;44.748;37.600;2024-01-16T07:29:40;10.83;88.28
76577;DHT22;65441;44.748;37.600;2024-01-16T07:32:09;10.84;87.99
76577;DHT22;65441;44.748;37.600;2024-01-16T07:34:38;10.86;87.85
76577;DHT22;65441;44.748;37.600;2024-01-16T07:37:06;10.89;87.73
76577;DHT22;65441;44.748;37.600;2024-01-16T07:39:36;10.87;87.54
76577;DHT22;65441;44.748;37.600;2024-01-16T07:42:23;10.94;87.17
76577;DHT22;65441;44.748;37.600;2024-01-16T07:44:52;10.97;87.52
76577;DHT22;65441;44.748;37.600;2024-01-16T07:47:21;10.95;87.30
76577;DHT22;65441;44.748;37.600;2024-01-16T07:50:09;10.96;87.38
76577;DHT22;65441;44.748;37.600;2024-01-16T07:52:37;10.89;87.41
76577;DHT22;65441;44.748;37.600;2024-01-16T07:55:07;10.87;87.06
76577;DHT22;65441;44.748;37.600;2024-01-16T07:57:35;10.92;87.09
76577;DHT22;65441;44.748;37.600;2024-01-16T08:00:04;10.92;87.28
76577;DHT22;65441;44.748;37.600;2024-01-16T08:02:38;10.94;86.89
76577;DHT22;65441;44.748;37.600;2024-01-16T08:05:08;10.95;87.08
76577;DHT22;65441;44.748;37.600;2024-01-16T08:07:36;10.97;87.10
76577;DHT22;65441;44.748;37.600;2024-01-16T08:10:07;11.02;87.10
76577;DHT22;65441;44.748;37.600;2024-01-16T08:12:36;11.04;86.83
76577;DHT22;65441;44.748;37.600;2024-01-16T08:15:23;11.04;86.90
76577;DHT22;65441;44.748;37.600;2024-01-16T08:17:52;11.04;86.41
76577;DHT22;65441;44.748;37.600;2024-01-16T08:20:20;11.05;86.81
76577;DHT22;65441;44.748;37.600;2024-01-16T08:22:48;10.99;87.27
76577;DHT22;65441;44.748;37.600;2024-01-16T08:25:18;11.01;87.32
76577;DHT22;65441;44.748;37.600;2024-01-16T08:27:47;11.03;87.45
76577;DHT22;65441;44.748;37.600;2024-01-16T08:30:15;11.01;87.32
76577;DHT22;65441;44.748;37.600;2024-01-16T08:32:43;11.01;87.46
76577;DHT22;65441;44.748;37.600;2024-01-16T08:35:11;11.03;87.10
76577;DHT22;65441;44.748;37.600;2024-01-16T08:37:40;10.99;86.95
76577;DHT22;65441;44.748;37.600;2024-01-16T08:40:09;10.98;87.07
76577;DHT22;65441;44.748;37.600;2024-01-16T08:42:39;10.96;86.90
76577;DHT22;65441;44.748;37.600;2024-01-16T08:45:09;10.98;86.67
76577;DHT22;65441;44.748;37.600;2024-01-16T08:47:37;10.96;86.83
76577;DHT22;65441;44.748;37.600;2024-01-16T08:50:07;10.96;86.72
76577;DHT22;65441;44.748;37.600;2024-01-16T08:52:52;10.97;86.17
76577;DHT22;65441;44.748;37.600;2024-01-16T08:55:20;10.95;86.21
76577;DHT22;65441;44.748;37.600;2024-01-16T08:58:08;10.93;85.76
76577;DHT22;65441;44.748;37.600;2024-01-16T09:00:36;10.89;85.19
76577;DHT22;65441;44.748;37.600;2024-01-16T09:03:06;10.93;85.29
76577;DHT22;65441;44.748;37.600;2024-01-16T09:05:35;10.94;84.97
76577;DHT22;65441;44.748;37.600;2024-01-16T09:08:05;10.90;84.93
76577;DHT22;65441;44.748;37.600;2024-01-16T09:10:34;10.88;84.93
76577;DHT22;65441;44.748;37.600;2024-01-16T09:13:02;10.86;84.57
76577;DHT22;65441;44.748;37.600;2024-01-16T09:15:32;10.83;84.55
76577;DHT22;65441;44.748;37.600;2024-01-16T09:18:01;10.83;85.22
76577;DHT22;65441;44.748;37.600;2024-01-16T09:20:29;10.83;85.27
76577;DHT22;65441;44.748;37.600;2024-01-16T09:22:58;10.77;85.67
76577;DHT22;65441;44.748;37.600;2024-01-16T09:25:26;10.73;86.20
76577;DHT22;65441;44.748;37.600;2024-01-16T09:30:46;10.59;86.50
76577;DHT22;65441;44.748;37.600;2024-01-16T09:33:33;10.54;87.43
76577;DHT22;65441;44.748;37.600;2024-01-16T09:36:01;10.53;87.19
76577;DHT22;65441;44.748;37.600;2024-01-16T09:38:30;10.53;87.41
76577;DHT22;65441;44.748;37.600;2024-01-16T09:40:58;10.52;87.19
76577;DHT22;65441;44.748;37.600;2024-01-16T09:43:27;10.51;87.37
76577;DHT22;65441;44.748;37.600;2024-01-16T09:46:00;10.48;87.20
76577;DHT22;65441;44.748;37.600;2024-01-16T09:48:30;10.48;88.17
76577;DHT22;65441;44.748;37.600;2024-01-16T09:50:59;10.45;88.69
76577;DHT22;65441;44.748;37.600;2024-01-16T09:53:27;10.40;88.37
76577;DHT22;65441;44.748;37.600;2024-01-16T09:56:16;10.38;88.92
76577;DHT22;65441;44.748;37.600;2024-01-16T09:58:47;10.31;89.23
76577;DHT22;65441;44.748;37.600;2024-01-16T10:01:19;10.29;89.78
76577;DHT22;65441;44.748;37.600;2024-01-16T10:03:48;10.33;89.79
76577;DHT22;65441;44.748;37.600;2024-01-16T10:06:20;10.33;90.50
76577;DHT22;65441;44.748;37.600;2024-01-16T10:08:49;10.35;90.12
76577;DHT22;65441;44.748;37.600;2024-01-16T10:11:18;10.30;89.40
76577;DHT22;65441;44.748;37.600;2024-01-16T10:13:47;10.33;89.33
76577;DHT22;65441;44.748;37.600;2024-01-16T10:16:17;10.35;89.25
76577;DHT22;65441;44.748;37.600;2024-01-16T10:18:47;10.36;89.08
76577;DHT22;65441;44.748;37.600;2024-01-16T10:21:21;10.36;88.03
76577;DHT22;65441;44.748;37.600;2024-01-16T10:23:50;10.37;87.82
76577;DHT22;65441;44.748;37.600;2024-01-16T10:26:18;10.36;88.52
76577;DHT22;65441;44.748;37.600;2024-01-16T10:28:49;10.34;88.93
76577;DHT22;65441;44.748;37.600;2024-01-16T10:31:19;10.34;88.88
76577;DHT22;65441;44.748;37.600;2024-01-16T10:33:47;10.33;88.19
76577;DHT22;65441;44.748;37.600;2024-01-16T10:36:16;10.30;87.59
76577;DHT22;65441;44.748;37.600;2024-01-16T10:38:47;10.30;87.77
76577;DHT22;65441;44.748;37.600;2024-01-16T10:41:20;10.34;87.98
76577;DHT22;65441;44.748;37.600;2024-01-16T10:44:03;10.33;86.99
76577;DHT22;65441;44.748;37.600;2024-01-16T10:46:35;10.34;88.02
76577;DHT22;65441;44.748;37.600;2024-01-16T10:49:04;10.35;88.75
76577;DHT22;65441;44.748;37.600;2024-01-16T10:51:33;10.37;89.26
76577;DHT22;65441;44.748;37.600;2024-01-16T10:54:03;10.37;89.99
76577;DHT22;65441;44.748;37.600;2024-01-16T10:56:32;10.36;89.99
76577;DHT22;65441;44.748;37.600;2024-01-16T10:59:07;10.39;90.58
76577;DHT22;65441;44.748;37.600;2024-01-16T11:01:43;10.37;90.37
76577;DHT22;65441;44.748;37.600;2024-01-16T11:04:12;10.35;90.00
76577;DHT22;65441;44.748;37.600;2024-01-16T11:06:41;10.37;89.86
76577;DHT22;65441;44.748;37.600;2024-01-16T11:09:13;10.37;88.34
76577;DHT22;65441;44.748;37.600;2024-01-16T11:11:44;10.38;87.69
76577;DHT22;65441;44.748;37.600;2024-01-16T11:14:13;10.39;88.44
76577;DHT22;65441;44.748;37.600;2024-01-16T11:16:47;10.38;88.43
76577;DHT22;65441;44.748;37.600;2024-01-16T11:19:17;10.38;89.03
76577;DHT22;65441;44.748;37.600;2024-01-16T11:21:47;10.39;89.29
76577;DHT22;65441;44.748;37.600;2024-01-16T11:24:34;10.36;89.47
76577;DHT22;65441;44.748;37.600;2024-01-16T11:27:03;10.37;89.85
76577;DHT22;65441;44.748;37.600;2024-01-16T11:29:34;10.35;89.83
76577;DHT22;65441;44.748;37.600;2024-01-16T11:32:06;10.29;89.15
76577;DHT22;65441;44.748;37.600;2024-01-16T11:34:52;10.26;89.75
76577;DHT22;65441;44.748;37.600;2024-01-16T11:37:28;10.22;90.10
76577;DHT22;65441;44.748;37.600;2024-01-16T11:40:25;10.18;90.75
76577;DHT22;65441;44.748;37.600;2024-01-16T11:42:55;10.11;90.73
76577;DHT22;65441;44.748;37.600;2024-01-16T11:45:53;10.07;91.48
76577;DHT22;65441;44.748;37.600;2024-01-16T11:48:23;10.08;90.32
76577;DHT22;65441;44.748;37.600;2024-01-16T11:50:53;10.04;91.09
76577;DHT22;65441;44.748;37.600;2024-01-16T11:53:37;10.01;90.62
76577;DHT22;65441;44.748;37.600;2024-01-16T11:56:34;9.99;91.24
76577;DHT22;65441;44.748;37.600;2024-01-16T11:59:20;9.93;91.58
76577;DHT22;65441;44.748;37.600;2024-01-16T12:01:53;9.91;91.95
76577;DHT22;65441;44.748;37.600;2024-01-16T12:04:27;9.85;92.19
76577;DHT22;65441;44.748;37.600;2024-01-16T12:07:00;9.84;92.43
76577;DHT22;65441;44.748;37.600;2024-01-16T12:09:28;9.82;92.92
76577;DHT22;65441;44.748;37.600;2024-01-16T12:11:58;9.80;93.16
76577;DHT22;65441;44.748;37.600;2024-01-16T12:14:28;9.80;93.30
76577;DHT22;65441;44.748;37.600;2024-01-16T12:17:08;9.76;93.33
76577;DHT22;65441;44.748;37.600;2024-01-16T12:19:39;9.78;93.46
76577;DHT22;65441;44.748;37.600;2024-01-16T12:22:09;9.76;93.33
76577;DHT22;65441;44.748;37.600;2024-01-16T12:24:38;9.75;93.75
76577;DHT22;65441;44.748;37.600;2024-01-16T12:27:06;9.74;93.65
76577;DHT22;65441;44.748;37.600;2024-01-16T12:29:35;9.72;93.79
76577;DHT22;65441;44.748;37.600;2024-01-16T12:32:08;9.71;93.33
76577;DHT22;65441;44.748;37.600;2024-01-16T12:34:43;9.71;93.28
76577;DHT22;65441;44.748;37.600;2024-01-16T12:37:29;9.70;93.37
76577;DHT22;65441;44.748;37.600;2024-01-16T12:39:57;9.71;93.39
76577;DHT22;65441;44.748;37.600;2024-01-16T12:42:26;9.68;93.27
76577;DHT22;65441;44.748;37.600;2024-01-16T12:44:56;9.68;93.37
76577;DHT22;65441;44.748;37.600;2024-01-16T12:47:24;9.67;93.74
76577;DHT22;65441;44.748;37.600;2024-01-16T12:50:19;9.67;93.97
76577;DHT22;65441;44.748;37.600;2024-01-16T12:52:48;9.68;94.35
76577;DHT22;65441;44.748;37.600;2024-01-16T12:55:35;9.65;94.36
76577;DHT22;65441;44.748;37.600;2024-01-16T12:58:17;9.65;94.59
76577;DHT22;65441;44.748;37.600;2024-01-16T13:00:46;9.65;94.14
76577;DHT22;65441;44.748;37.600;2024-01-16T13:03:16;9.65;94.35
76577;DHT22;65441;44.748;37.600;2024-01-16T13:05:54;9.67;94.15
76577;DHT22;65441;44.748;37.600;2024-01-16T13:08:23;9.66;94.19
76577;DHT22;65441;44.748;37.600;2024-01-16T13:11:04;9.62;94.11
76577;DHT22;65441;44.748;37.600;2024-01-16T13:13:34;9.62;94.05
76577;DHT22;65441;44.748;37.600;2024-01-16T13:16:05;9.59;94.48
76577;DHT22;65441;44.748;37.600;2024-01-16T13:18:33;9.56;94.79
76577;DHT22;65441;44.748;37.600;2024-01-16T13:21:04;9.54;95.11
76577;DHT22;65441;44.748;37.600;2024-01-16T13:23:32;9.55;95.01
76577;DHT22;65441;44.748;37.600;2024-01-16T13:26:01;9.54;95.26
76577;DHT22;65441;44.748;37.600;2024-01-16T13:28:31;9.53;95.55
76577;DHT22;65441;44.748;37.600;2024-01-16T13:30:59;9.55;95.99
76577;DHT22;65441;44.748;37.600;2024-01-16T13:33:27;9.54;96.06
76577;DHT22;65441;44.748;37.600;2024-01-16T13:35:56;9.55;96.26
76577;DHT22;65441;44.748;37.600;2024-01-16T13:38:26;9.54;96.32
76577;DHT22;65441;44.748;37.600;2024-01-16T13:41:11;9.52;96.60
76577;DHT22;65441;44.748;37.600;2024-01-16T13:43:59;9.56;96.33
76577;DHT22;65441;44.748;37.600;2024-01-16T13:46:27;9.62;96.14
76577;DHT22;65441;44.748;37.600;2024-01-16T13:48:56;9.63;96.04
76577;DHT22;65441;44.748;37.600;2024-01-16T13:51:24;9.66;95.90
76577;DHT22;65441;44.748;37.600;2024-01-16T13:53:54;9.66;95.57
76577;DHT22;65441;44.748;37.600;2024-01-16T13:56:24;9.67;95.41
76577;DHT22;65441;44.748;37.600;2024-01-16T13:58:52;9.72;95.16
76577;DHT22;65441;44.748;37.600;2024-01-16T14:01:20;9.74;95.62
76577;DHT22;65441;44.748;37.600;2024-01-16T14:04:07;9.74;95.86
76577;DHT22;65441;44.748;37.600;2024-01-16T14:06:36;9.74;95.53
76577;DHT22;65441;44.748;37.600;2024-01-16T14:09:06;9.78;95.04
76577;DHT22;65441;44.748;37.600;2024-01-16T14:11:36;9.81;95.09
76577;DHT22;65441;44.748;37.600;2024-01-16T14:14:04;9.84;94.98
76577;DHT22;65441;44.748;37.600;2024-01-16T14:16:33;9.86;94.94
76577;DHT22;65441;44.748;37.600;2024-01-16T14:19:20;9.86;94.77
76577;DHT22;65441;44.748;37.600;2024-01-16T14:21:49;9.84;94.48
76577;DHT22;65441;44.748;37.600;2024-01-16T14:24:19;9.85;94.91
76577;DHT22;65441;44.748;37.600;2024-01-16T14:26:48;9.88;95.17
76577;DHT22;65441;44.748;37.600;2024-01-16T14:29:16;9.90;95.23
76577;DHT22;65441;44.748;37.600;2024-01-16T14:31:45;9.91;95.07
76577;DHT22;65441;44.748;37.600;2024-01-16T14:34:15;9.89;94.76
76577;DHT22;65441;44.748;37.600;2024-01-16T14:36:44;9.93;94.89
76577;DHT22;65441;44.748;37.600;2024-01-16T14:39:12;9.91;94.67
76577;DHT22;65441;44.748;37.600;2024-01-16T14:41:45;9.95;93.75
76577;DHT22;65441;44.748;37.600;2024-01-16T14:44:13;9.97;94.46
76577;DHT22;65441;44.748;37.600;2024-01-16T14:46:42;9.98;94.30
76577;DHT22;65441;44.748;37.600;2024-01-16T14:49:11;9.98;94.03
76577;DHT22;65441;44.748;37.600;2024-01-16T14:51:39;9.97;94.06
76577;DHT22;65441;44.748;37.600;2024-01-16T14:54:25;10.00;93.91
76577;DHT22;65441;44.748;37.600;2024-01-16T14:56:54;10.03;93.80
76577;DHT22;65441;44.748;37.600;2024-01-16T14:59:22;10.03;93.82
76577;DHT22;65441;44.748;37.600;2024-01-16T15:01:50;10.04;93.45
76577;DHT22;65441;44.748;37.600;2024-01-16T15:04:19;10.06;93.05
76577;DHT22;65441;44.748;37.600;2024-01-16T15:06:47;10.05;92.52
76577;DHT22;65441;44.748;37.600;2024-01-16T15:09:18;10.06;93.30
76577;DHT22;65441;44.748;37.600;2024-01-16T15:11:46;10.03;92.55
76577;DHT22;65441;44.748;37.600;2024-01-16T15:14:15;10.05;91.70
76577;DHT22;65441;44.748;37.600;2024-01-16T15:16:44;10.05;92.37
76577;DHT22;65441;44.748;37.600;2024-01-16T15:19:13;10.04;93.04
76577;DHT22;65441;44.748;37.600;2024-01-16T15:21:41;9.68;90.38
76577;DHT22;65441;44.748;37.600;2024-01-16T15:24:09;9.29;89.86
76577;DHT22;65441;44.748;37.600;2024-01-16T15:26:42;9.17;90.89
76577;DHT22;65441;44.748;37.600;2024-01-16T15:29:11;8.95;90.76
76577;DHT22;65441;44.748;37.600;2024-01-16T15:31:41;8.70;90.11
76577;DHT22;65441;44.748;37.600;2024-01-16T15:34:09;8.50;89.70
76577;DHT22;65441;44.748;37.600;2024-01-16T15:36:37;8.28;89.67
76577;DHT22;65441;44.748;37.600;2024-01-16T15:39:05;8.28;89.25
76577;DHT22;65441;44.748;37.600;2024-01-16T15:41:34;8.19;89.84
76577;DHT22;65441;44.748;37.600;2024-01-16T15:44:03;8.13;89.73
76577;DHT22;65441;44.748;37.600;2024-01-16T15:46:32;8.08;90.16
76577;DHT22;65441;44.748;37.600;2024-01-16T15:49:02;8.00;89.33
76577;DHT22;65441;44.748;37.600;2024-01-16T15:51:30;7.97;89.69
76577;DHT22;65441;44.748;37.600;2024-01-16T15:53:59;7.92;89.81
76577;DHT22;65441;44.748;37.600;2024-01-16T15:56:27;7.87;89.93
76577;DHT22;65441;44.748;37.600;2024-01-16T15:58:55;7.85;90.36